createdAt,value
2022-12-23T00:01:37.726Z,43.97
2022-12-23T00:04:05.269Z,46.50
2022-12-23T00:06:32.505Z,72.05
2022-12-23T00:09:00.488Z,110.07
2022-12-23T00:11:28.788Z,79.78
2022-12-23T00:14:20.969Z,62.72
2022-12-23T00:16:49.307Z,54.55
2022-12-23T00:19:16.725Z,50.72
2022-12-23T00:21:43.987Z,50.80
2022-12-23T00:24:12.316Z,59.40
2022-12-23T00:26:39.499Z,52.50
2022-12-23T00:29:06.736Z,48.00
2022-12-23T00:31:34.026Z,47.60
2022-12-23T00:34:01.287Z,55.13
2022-12-23T00:36:29.977Z,51.97
2022-12-23T00:39:17.305Z,51.47
2022-12-23T00:42:02.952Z,56.13
2022-12-23T00:44:30.257Z,56.28
2022-12-23T00:46:57.562Z,57.70
2022-12-23T00:49:43.315Z,55.15
2022-12-23T00:52:13.519Z,58.67
2022-12-23T00:54:40.841Z,59.00
2022-12-23T00:57:08.106Z,56.20
2022-12-23T00:59:35.531Z,49.80
2022-12-23T01:02:21.464Z,53.78
2022-12-23T01:05:07.815Z,53.67
2022-12-23T01:07:35.047Z,54.40
2022-12-23T01:10:02.263Z,60.13
2022-12-23T01:12:29.543Z,55.25
2022-12-23T01:14:56.716Z,62.15
2022-12-23T01:17:24.178Z,60.92
2022-12-23T01:19:51.569Z,55.05
2022-12-23T01:22:18.761Z,59.08
2022-12-23T01:24:46.025Z,62.55
2022-12-23T01:27:13.219Z,62.97
2022-12-23T01:29:40.381Z,56.95
2022-12-23T01:32:08.155Z,64.55
2022-12-23T01:34:37.432Z,61.28
2022-12-23T01:37:04.985Z,61.55
2022-12-23T01:39:32.221Z,69.28
2022-12-23T01:42:17.878Z,66.50
2022-12-23T01:44:52.415Z,59.10
2022-12-23T01:47:41.867Z,74.40
2022-12-23T01:50:16.845Z,65.80
2022-12-23T01:52:52.530Z,73.22
2022-12-23T01:55:22.461Z,77.30
2022-12-23T01:57:50.199Z,76.90
2022-12-23T02:00:36.444Z,78.38
2022-12-23T02:03:22.593Z,82.43
2022-12-23T02:05:50.194Z,87.53
2022-12-23T02:08:36.533Z,82.00
2022-12-23T02:11:22.436Z,101.05
2022-12-23T02:14:27.994Z,90.75
2022-12-23T02:17:13.047Z,84.95
2022-12-23T02:20:20.563Z,93.88
2022-12-23T02:23:09.000Z,95.38
2022-12-23T02:26:13.750Z,97.05
2022-12-23T02:29:19.957Z,96.07
2022-12-23T02:32:01.329Z,86.70
2022-12-23T02:34:55.692Z,92.55
2022-12-23T02:37:45.484Z,90.55
2022-12-23T02:40:37.359Z,92.60
2022-12-23T02:43:11.711Z,94.82
2022-12-23T02:45:54.188Z,94.72
2022-12-23T02:48:45.917Z,102.47
2022-12-23T02:51:14.942Z,87.80
2022-12-23T02:53:49.871Z,97.93
2022-12-23T02:56:19.953Z,98.22
2022-12-23T02:58:53.260Z,99.38
2022-12-23T03:01:21.464Z,90.88
2022-12-23T03:03:50.344Z,94.28
2022-12-23T03:06:43.749Z,95.45
2022-12-23T03:09:20.850Z,80.30
2022-12-23T03:11:53.191Z,81.72
2022-12-23T03:14:46.888Z,83.28
2022-12-23T03:17:21.032Z,87.60
2022-12-23T03:20:18.857Z,84.95
2022-12-23T03:22:49.201Z,85.97
2022-12-23T03:25:23.902Z,78.88
2022-12-23T03:28:01.494Z,86.93
2022-12-23T03:30:30.501Z,88.10
2022-12-23T03:33:09.830Z,87.88
2022-12-23T03:38:08.131Z,84.32
2022-12-23T03:40:58.751Z,82.00
2022-12-23T03:43:29.251Z,86.95
2022-12-23T03:46:03.797Z,91.20
2022-12-23T03:48:37.817Z,83.15
2022-12-23T03:51:14.415Z,80.18
2022-12-23T03:53:51.928Z,85.75
2022-12-23T03:56:31.357Z,81.00
2022-12-23T03:59:11.997Z,85.47
2022-12-23T04:01:48.268Z,86.82
2022-12-23T04:04:27.654Z,82.63
2022-12-23T04:09:27.360Z,79.40
2022-12-23T04:11:57.868Z,89.68
2022-12-23T04:14:25.592Z,87.55
2022-12-23T04:16:55.787Z,90.72
2022-12-23T04:19:23.043Z,93.65
2022-12-23T04:21:50.205Z,91.25
2022-12-23T04:24:17.475Z,89.57
2022-12-23T04:26:44.813Z,97.97
2022-12-23T04:29:12.192Z,87.47
2022-12-23T04:31:39.374Z,92.82
2022-12-23T04:34:06.755Z,80.38
2022-12-23T04:36:33.977Z,83.18
2022-12-23T04:39:01.183Z,83.30
2022-12-23T04:41:28.344Z,77.13
2022-12-23T04:43:55.577Z,85.75
2022-12-23T04:46:22.815Z,89.05
2022-12-23T04:48:50.149Z,87.10
2022-12-23T04:51:17.341Z,74.15
2022-12-23T04:53:44.794Z,75.85
2022-12-23T04:56:11.958Z,74.43
2022-12-23T04:58:39.303Z,71.40
2022-12-23T05:01:08.924Z,76.18
2022-12-23T05:03:37.014Z,67.70
2022-12-23T05:06:04.841Z,65.40
2022-12-23T05:08:32.190Z,69.05
2022-12-23T05:10:59.486Z,58.92
2022-12-23T05:13:26.731Z,63.35
2022-12-23T05:15:54.810Z,61.00
2022-12-23T05:18:22.594Z,48.75
2022-12-23T05:20:50.557Z,50.90
2022-12-23T05:23:18.080Z,54.78
2022-12-23T05:25:52.166Z,51.13
2022-12-23T05:28:19.749Z,49.38
2022-12-23T05:30:47.043Z,49.90
2022-12-23T05:33:14.881Z,50.65
2022-12-23T05:35:42.183Z,49.15
2022-12-23T05:38:09.400Z,44.13
2022-12-23T05:40:36.605Z,47.55
2022-12-23T05:43:04.094Z,49.03
2022-12-23T05:45:31.690Z,43.90
2022-12-23T05:47:58.942Z,46.65
2022-12-23T05:50:26.202Z,45.03
2022-12-23T05:52:55.873Z,42.63
2022-12-23T05:55:23.484Z,48.05
2022-12-23T05:57:51.159Z,47.17
2022-12-23T06:00:19.867Z,45.13
2022-12-23T06:02:53.607Z,48.55
2022-12-23T06:05:21.673Z,46.60
2022-12-23T06:07:48.919Z,43.20
2022-12-23T06:10:16.170Z,46.80
2022-12-23T06:12:43.608Z,46.90
2022-12-23T06:15:11.472Z,44.35
2022-12-23T06:17:38.830Z,40.22
2022-12-23T06:20:06.656Z,41.08
2022-12-23T06:22:34.115Z,46.35
2022-12-23T06:25:01.373Z,50.58
2022-12-23T06:27:28.550Z,37.38
2022-12-23T06:29:56.214Z,43.15
2022-12-23T06:32:23.400Z,47.92
2022-12-23T06:34:53.456Z,43.85
2022-12-23T06:37:21.616Z,39.70
2022-12-23T06:39:48.801Z,45.25
2022-12-23T06:42:15.981Z,50.10
2022-12-23T06:44:43.225Z,49.92
2022-12-23T06:47:12.865Z,46.40
2022-12-23T06:49:40.240Z,38.00
2022-12-23T06:52:07.421Z,48.78
2022-12-23T06:54:34.695Z,47.00
2022-12-23T06:57:01.900Z,47.08
2022-12-23T06:59:30.028Z,48.85
2022-12-23T07:01:57.346Z,39.95
2022-12-23T07:04:24.756Z,42.50
2022-12-23T07:06:51.944Z,43.53
2022-12-23T07:09:19.177Z,55.83
2022-12-23T07:11:50.250Z,48.25
2022-12-23T07:14:17.620Z,49.20
2022-12-23T07:16:45.334Z,53.38
2022-12-23T07:19:12.767Z,51.95
2022-12-23T07:21:40.057Z,56.28
2022-12-23T07:24:12.929Z,47.83
2022-12-23T07:26:44.088Z,49.83
2022-12-23T07:29:12.048Z,55.67
2022-12-23T07:31:41.040Z,55.80
2022-12-23T07:34:09.080Z,56.70
2022-12-23T07:36:36.435Z,60.45
2022-12-23T07:39:04.331Z,54.42
2022-12-23T07:41:31.576Z,56.13
2022-12-23T07:43:58.820Z,60.17
2022-12-23T07:46:26.110Z,55.25
2022-12-23T07:48:53.393Z,55.45
2022-12-23T07:51:20.764Z,54.90
2022-12-23T07:53:51.526Z,53.80
2022-12-23T07:56:19.922Z,50.58
2022-12-23T07:58:51.818Z,47.87
2022-12-23T08:01:19.893Z,47.90
2022-12-23T08:03:48.069Z,54.88
2022-12-23T08:06:16.544Z,49.55
2022-12-23T08:08:46.101Z,59.03
2022-12-23T08:11:14.369Z,56.42
2022-12-23T08:13:43.095Z,58.40
2022-12-23T08:16:10.823Z,55.33
2022-12-23T08:18:39.981Z,55.05
2022-12-23T08:21:19.367Z,55.05
2022-12-23T08:26:20.092Z,56.00
2022-12-23T08:28:48.064Z,59.42
2022-12-23T08:31:24.828Z,56.67
2022-12-23T08:33:54.999Z,55.88
2022-12-23T08:36:30.748Z,59.88
2022-12-23T08:39:01.423Z,69.05
2022-12-23T08:41:31.396Z,63.33
2022-12-23T08:43:59.208Z,59.95
2022-12-23T08:46:26.641Z,58.33
2022-12-23T08:48:54.377Z,60.30
2022-12-23T08:51:23.331Z,59.05
2022-12-23T08:53:54.802Z,56.78
2022-12-23T08:56:27.027Z,67.60
2022-12-23T08:58:55.318Z,61.42
2022-12-23T09:01:24.768Z,58.92
2022-12-23T09:03:52.871Z,51.97
2022-12-23T09:06:29.659Z,56.80
2022-12-23T09:08:57.975Z,52.95
2022-12-23T09:11:26.774Z,54.30
2022-12-23T09:13:54.731Z,52.20
2022-12-23T09:16:22.101Z,47.05
2022-12-23T09:18:49.364Z,43.47
2022-12-23T09:21:21.591Z,47.75
2022-12-23T09:23:49.224Z,40.50
2022-12-23T09:26:25.600Z,40.58
2022-12-23T09:28:53.217Z,45.85
2022-12-23T09:31:21.575Z,38.60
2022-12-23T09:33:50.407Z,37.50
2022-12-23T09:36:18.018Z,34.25
2022-12-23T09:38:45.279Z,36.80
2022-12-23T09:41:26.413Z,35.22
2022-12-23T09:44:09.740Z,32.90
2022-12-23T09:46:42.151Z,36.38
2022-12-23T09:49:15.534Z,37.60
2022-12-23T09:51:42.781Z,35.55
2022-12-23T09:54:29.310Z,35.85
2022-12-23T09:57:20.534Z,36.13
2022-12-23T10:00:12.346Z,40.47
2022-12-23T10:03:01.508Z,35.65
2022-12-23T10:06:06.790Z,33.47
2022-12-23T10:08:36.705Z,31.30
2022-12-23T10:11:19.233Z,35.08
2022-12-23T10:13:56.820Z,34.55
2022-12-23T10:16:28.337Z,34.00
2022-12-23T10:19:25.657Z,37.97
2022-12-23T10:22:06.283Z,32.88
2022-12-23T10:24:47.231Z,38.10
2022-12-23T10:27:40.413Z,40.40
2022-12-23T10:30:34.123Z,41.90
2022-12-23T10:33:24.438Z,39.75
2022-12-23T10:35:51.542Z,42.90
2022-12-23T10:38:21.721Z,41.03
2022-12-23T10:40:51.232Z,39.33
2022-12-23T10:43:39.751Z,37.92
2022-12-23T10:46:35.149Z,43.55
2022-12-23T10:49:17.433Z,36.92
2022-12-23T10:51:49.421Z,36.60
2022-12-23T10:54:35.628Z,41.05
2022-12-23T10:57:03.955Z,32.20
2022-12-23T10:59:35.511Z,31.52
2022-12-23T11:02:05.658Z,29.33
2022-12-23T11:04:36.433Z,27.90
2022-12-23T11:07:42.059Z,33.90
2022-12-23T11:10:23.424Z,26.15
2022-12-23T11:12:52.841Z,29.52
2022-12-23T11:15:26.503Z,27.90
2022-12-23T11:18:12.144Z,28.42
2022-12-23T11:20:41.207Z,26.15
2022-12-23T11:23:25.493Z,27.67
2022-12-23T11:26:11.570Z,25.40
2022-12-23T11:28:46.491Z,22.35
2022-12-23T11:31:14.678Z,24.50
2022-12-23T11:33:57.635Z,23.92
2022-12-23T11:36:27.629Z,21.92
2022-12-23T11:39:13.171Z,24.20
2022-12-23T11:41:45.725Z,24.65
2022-12-23T11:44:22.394Z,27.48
2022-12-23T11:46:50.112Z,26.25
2022-12-23T11:49:25.797Z,27.60
2022-12-23T11:52:02.250Z,28.80
2022-12-23T11:54:37.776Z,31.75
2022-12-23T11:57:08.349Z,31.15
2022-12-23T11:59:49.807Z,26.00
2022-12-23T12:02:34.034Z,29.23
2022-12-23T12:05:17.217Z,31.25
2022-12-23T12:07:52.921Z,36.40
2022-12-23T12:10:27.832Z,29.45
2022-12-23T12:13:08.484Z,33.63
2022-12-23T12:15:58.384Z,36.53
2022-12-23T12:18:27.069Z,37.17
2022-12-23T12:21:00.096Z,38.13
2022-12-23T12:23:35.712Z,33.15
2022-12-23T12:26:08.227Z,36.65
2022-12-23T12:28:40.349Z,34.92
2022-12-23T12:31:41.705Z,33.53
2022-12-23T12:34:33.723Z,36.30
2022-12-23T12:37:26.744Z,35.58
2022-12-23T12:39:58.544Z,35.45
2022-12-23T12:42:39.037Z,39.70
2022-12-23T12:45:21.132Z,41.90
2022-12-23T12:47:56.008Z,39.08
2022-12-23T12:50:33.284Z,40.45
2022-12-23T12:53:08.270Z,37.63
2022-12-23T12:55:42.391Z,35.88
2022-12-23T12:58:19.028Z,34.92
2022-12-23T13:01:12.451Z,37.25
2022-12-23T13:04:04.706Z,30.88
2022-12-23T13:07:05.823Z,31.83
2022-12-23T13:10:00.054Z,36.33
2022-12-23T13:12:44.013Z,40.33
2022-12-23T13:15:22.017Z,36.70
2022-12-23T13:18:03.653Z,31.70
2022-12-23T13:20:41.966Z,35.83
2022-12-23T13:23:42.348Z,27.33
2022-12-23T13:26:37.886Z,30.48
2022-12-23T13:29:39.941Z,30.20
2022-12-23T13:32:31.940Z,29.23
2022-12-23T13:35:35.823Z,32.63
2022-12-23T13:38:49.508Z,26.30
2022-12-23T13:41:26.103Z,31.92
2022-12-23T13:44:05.716Z,30.17
2022-12-23T13:46:41.203Z,28.17
2022-12-23T13:49:30.815Z,29.63
2022-12-23T13:52:24.796Z,31.85
2022-12-23T13:55:13.806Z,28.13
2022-12-23T13:57:40.924Z,30.30
2022-12-23T14:00:26.418Z,27.58
2022-12-23T14:03:00.141Z,27.55
2022-12-23T14:05:45.362Z,25.42
2022-12-23T14:08:30.589Z,22.75
2022-12-23T14:11:01.552Z,29.92
2022-12-23T14:13:52.506Z,24.90
2022-12-23T14:16:42.024Z,24.67
2022-12-23T14:19:39.531Z,20.30
2022-12-23T14:22:31.734Z,19.63
2022-12-23T14:25:37.165Z,16.65
2022-12-23T14:28:27.312Z,14.70
2022-12-23T14:30:55.835Z,15.63
2022-12-23T14:33:28.292Z,14.02
2022-12-23T14:35:58.579Z,12.50
2022-12-23T14:38:33.008Z,15.10
2022-12-23T14:41:23.733Z,14.05
2022-12-23T14:43:56.182Z,12.13
2022-12-23T14:46:35.624Z,15.02
2022-12-23T14:49:38.443Z,16.70
2022-12-23T14:52:42.614Z,15.15
2022-12-23T14:55:40.450Z,14.82
2022-12-23T14:58:27.290Z,16.08
2022-12-23T15:01:07.318Z,18.38
2022-12-23T15:03:40.417Z,17.73
2022-12-23T15:06:07.832Z,16.17
2022-12-23T15:08:39.399Z,17.17
2022-12-23T15:11:09.459Z,17.73
2022-12-23T15:13:37.746Z,18.08
2022-12-23T15:16:06.150Z,21.23
2022-12-23T15:18:33.394Z,19.70
2022-12-23T15:21:11.093Z,19.83
2022-12-23T15:23:38.287Z,17.83
2022-12-23T15:26:05.643Z,21.13
2022-12-23T15:28:38.163Z,26.60
2022-12-23T15:31:06.234Z,25.25
2022-12-23T15:39:00.454Z,28.38
2022-12-23T15:41:28.202Z,28.85
2022-12-23T15:44:01.554Z,34.15
2022-12-23T15:46:30.658Z,27.90
2022-12-23T15:54:27.964Z,36.67
2022-12-23T16:03:40.524Z,43.28
2022-12-23T16:06:19.764Z,75.32
2022-12-23T16:08:57.971Z,81.55
2022-12-23T16:11:57.452Z,52.35
2022-12-23T16:14:31.731Z,87.93
2022-12-23T16:17:00.719Z,82.05
2022-12-23T16:19:41.398Z,59.88
2022-12-23T16:22:17.978Z,48.78
2022-12-23T16:24:59.148Z,46.28
2022-12-23T16:27:38.990Z,50.65
2022-12-23T16:30:24.667Z,46.10
2022-12-23T16:32:55.097Z,36.78
2022-12-23T16:35:42.773Z,41.00
2022-12-23T16:38:19.664Z,37.78
2022-12-23T16:40:49.247Z,37.65
2022-12-23T16:43:16.633Z,38.75
2022-12-23T16:45:45.219Z,36.38
2022-12-23T16:48:31.354Z,38.90
2022-12-23T16:50:59.188Z,39.17
2022-12-23T16:53:27.948Z,39.92
2022-12-23T16:56:00.660Z,42.30
2022-12-23T16:58:28.594Z,39.20
2022-12-23T17:00:56.533Z,39.83
2022-12-23T17:03:23.849Z,39.63
2022-12-23T17:05:52.306Z,43.25
2022-12-23T17:08:19.990Z,43.72
2022-12-23T17:10:47.722Z,46.60
2022-12-23T17:13:17.708Z,44.78
2022-12-23T17:15:45.471Z,42.30
2022-12-23T17:18:15.018Z,60.47
2022-12-23T17:20:43.489Z,42.50
2022-12-23T17:23:27.501Z,44.17
2022-12-23T17:25:55.583Z,46.30
2022-12-23T17:28:23.879Z,42.80
2022-12-23T17:30:54.623Z,48.78
2022-12-23T17:33:22.541Z,51.63
2022-12-23T17:35:49.977Z,48.50
2022-12-23T17:38:17.572Z,43.90
2022-12-23T17:40:46.248Z,44.42
2022-12-23T17:43:15.158Z,43.53
2022-12-23T17:45:42.901Z,42.75
2022-12-23T17:48:20.592Z,46.25
2022-12-23T17:50:48.867Z,48.20
2022-12-23T17:53:20.187Z,42.85
2022-12-23T17:55:47.669Z,63.45
2022-12-23T17:58:15.754Z,70.18
2022-12-23T18:00:43.205Z,49.92
2022-12-23T18:03:22.718Z,51.35
2022-12-23T18:05:54.227Z,50.03
2022-12-23T18:08:21.821Z,46.70
2022-12-23T18:10:49.213Z,47.30
2022-12-23T18:13:19.240Z,45.45
2022-12-23T18:15:46.749Z,43.33
2022-12-23T18:18:17.869Z,40.15
2022-12-23T18:20:52.282Z,44.70
2022-12-23T18:23:23.647Z,41.45
2022-12-23T18:25:50.872Z,41.30
2022-12-23T18:28:18.268Z,41.85
2022-12-23T18:30:45.541Z,45.55
2022-12-23T18:33:13.576Z,43.92
2022-12-23T18:35:46.392Z,42.15
2022-12-23T18:38:21.183Z,42.70
2022-12-23T18:40:52.012Z,40.15
2022-12-23T18:43:23.853Z,44.15
2022-12-23T18:45:55.421Z,64.35
2022-12-23T18:48:22.625Z,53.70
2022-12-23T18:50:51.167Z,46.25
2022-12-23T18:53:24.635Z,46.53
2022-12-23T18:55:54.059Z,46.97
2022-12-23T18:58:21.607Z,50.13
2022-12-23T19:00:49.848Z,57.50
2022-12-23T19:03:28.520Z,60.20
2022-12-23T19:05:56.559Z,59.83
2022-12-23T19:08:26.965Z,58.15
2022-12-23T19:10:55.559Z,61.75
2022-12-23T19:13:23.818Z,62.75
2022-12-23T19:15:51.896Z,62.28
2022-12-23T19:18:20.830Z,62.80
2022-12-23T19:20:48.714Z,64.32
2022-12-23T19:23:16.369Z,61.80
2022-12-23T19:25:52.603Z,64.25
2022-12-23T19:28:23.548Z,65.03
2022-12-23T19:30:50.992Z,64.07
2022-12-23T19:33:18.301Z,65.43
2022-12-23T19:35:45.476Z,64.88
2022-12-23T19:38:12.814Z,66.13
2022-12-23T19:40:40.419Z,75.45
2022-12-23T19:43:08.297Z,74.43
2022-12-23T19:45:36.497Z,76.78
2022-12-23T19:48:03.828Z,75.05
2022-12-23T19:50:31.035Z,77.80
2022-12-23T19:52:58.353Z,78.68
2022-12-23T19:55:25.593Z,87.70
2022-12-23T19:57:54.346Z,89.00
2022-12-23T20:00:21.492Z,91.35
2022-12-23T20:02:52.441Z,99.63
2022-12-23T20:05:24.034Z,93.57
2022-12-23T20:07:51.383Z,104.47
2022-12-23T20:10:18.685Z,95.38
2022-12-23T20:12:45.942Z,92.30
2022-12-23T20:15:13.217Z,97.15
2022-12-23T20:17:40.477Z,94.15
2022-12-23T20:20:11.315Z,81.20
2022-12-23T20:22:38.674Z,80.72
2022-12-23T20:25:06.262Z,81.78
2022-12-23T20:27:33.818Z,85.25
2022-12-23T20:30:01.055Z,86.13
2022-12-23T20:32:28.403Z,87.75
2022-12-23T20:34:55.606Z,89.90
2022-12-23T20:37:24.396Z,97.03
2022-12-23T20:39:52.070Z,99.03
2022-12-23T20:42:19.443Z,87.22
2022-12-23T20:44:46.626Z,88.38
2022-12-23T20:47:13.852Z,92.28
2022-12-23T20:49:41.358Z,85.07
2022-12-23T20:52:10.925Z,89.20
2022-12-23T20:54:38.151Z,90.43
2022-12-23T20:57:05.433Z,89.53
2022-12-23T20:59:33.273Z,95.68
2022-12-23T21:02:00.568Z,99.28
2022-12-23T21:04:28.157Z,104.97
2022-12-23T21:06:55.401Z,113.57
2022-12-23T21:09:22.711Z,114.88
2022-12-23T21:11:50.210Z,116.45
2022-12-23T21:14:17.479Z,107.93
2022-12-23T21:16:45.052Z,112.53
2022-12-23T21:19:23.329Z,112.40
2022-12-23T21:21:51.458Z,105.00
2022-12-23T21:24:20.747Z,117.50
2022-12-23T21:26:56.315Z,121.15
2022-12-23T21:29:26.279Z,116.43
2022-12-23T21:31:54.839Z,109.57
2022-12-23T21:34:22.347Z,114.97
2022-12-23T21:36:49.801Z,108.28
2022-12-23T21:39:17.220Z,122.03
2022-12-23T21:41:46.148Z,114.60
2022-12-23T21:44:15.069Z,116.68
2022-12-23T21:46:42.582Z,114.72
2022-12-23T21:49:10.313Z,108.55
2022-12-23T21:51:40.750Z,111.22
2022-12-23T21:54:09.580Z,108.50
2022-12-23T21:56:43.819Z,106.83
2022-12-23T21:59:15.464Z,117.60
2022-12-23T22:01:43.724Z,102.03
2022-12-23T22:04:10.999Z,110.00
2022-12-23T22:06:43.362Z,100.57
2022-12-23T22:09:13.270Z,98.97
2022-12-23T22:11:40.654Z,98.32
2022-12-23T22:14:10.701Z,97.60
2022-12-23T22:16:38.252Z,99.97
2022-12-23T22:19:06.692Z,97.90
2022-12-23T22:21:34.904Z,107.33
2022-12-23T22:24:02.263Z,108.55
2022-12-23T22:26:31.621Z,99.30
2022-12-23T22:31:47.291Z,96.90
2022-12-23T22:34:17.422Z,86.28
2022-12-23T22:36:44.849Z,94.90
2022-12-23T22:39:20.170Z,89.70
2022-12-23T22:41:49.472Z,97.00
2022-12-23T22:44:16.691Z,90.38
2022-12-23T22:46:46.201Z,95.88
2022-12-23T22:49:14.457Z,91.15
2022-12-23T22:51:42.200Z,89.55
2022-12-23T22:54:10.125Z,85.75
2022-12-23T22:56:38.367Z,87.72
2022-12-23T22:59:05.647Z,89.93
2022-12-23T23:01:35.505Z,77.82
2022-12-23T23:04:05.886Z,75.03
2022-12-23T23:06:37.646Z,76.85
2022-12-23T23:09:07.333Z,70.75
2022-12-23T23:11:35.300Z,69.72
2022-12-23T23:14:02.804Z,72.03
2022-12-23T23:16:30.257Z,73.15
2022-12-23T23:18:58.967Z,61.95
2022-12-23T23:21:26.626Z,68.22
2022-12-23T23:23:53.927Z,67.35
2022-12-23T23:26:21.611Z,65.68
2022-12-23T23:28:49.179Z,71.93
2022-12-23T23:31:41.288Z,72.00
2022-12-23T23:34:03.651Z,72.57
2022-12-23T23:36:30.929Z,67.75
2022-12-23T23:38:58.175Z,69.93
2022-12-23T23:41:28.023Z,71.68
2022-12-23T23:43:55.825Z,70.43
2022-12-23T23:46:23.388Z,68.43
2022-12-23T23:48:50.670Z,66.95
2022-12-23T23:51:17.880Z,72.18
2022-12-23T23:53:45.098Z,68.65
2022-12-23T23:56:12.280Z,71.70
2022-12-23T23:58:39.989Z,72.05
